sensor_id;sensor_type;location;lat;lon;timestamp;pressure;altitude;pressure_sealevel;temperature;humidity
9110;BME280;4590;51.462;6.692;2024-03-02T05:32:34;99851.88;;;9.69;58.12
9110;BME280;4590;51.462;6.692;2024-03-02T05:35:00;99843.16;;;9.67;58.15
9110;BME280;4590;51.462;6.692;2024-03-02T05:37:26;99842.66;;;9.65;58.01
9110;BME280;4590;51.462;6.692;2024-03-02T05:39:51;99840.25;;;9.63;57.92
9110;BME280;4590;51.462;6.692;2024-03-02T05:42:17;99830.53;;;9.48;58.65
9110;BME280;4590;51.462;6.692;2024-03-02T05:44:42;99835.72;;;9.50;58.37
9110;BME280;4590;51.462;6.692;2024-03-02T05:47:08;99829.56;;;9.53;58.35
9110;BME280;4590;51.462;6.692;2024-03-02T05:49:34;99828.75;;;9.53;58.08
9110;BME280;4590;51.462;6.692;2024-03-02T05:51:59;99832.16;;;9.49;58.22
9110;BME280;4590;51.462;6.692;2024-03-02T05:54:24;99837.63;;;9.41;58.46
9110;BME280;4590;51.462;6.692;2024-03-02T05:56:50;99848.13;;;9.47;58.18
9110;BME280;4590;51.462;6.692;2024-03-02T05:59:15;99845.56;;;9.42;58.47
9110;BME280;4590;51.462;6.692;2024-03-02T06:01:43;99843.78;;;9.46;58.54
9110;BME280;4590;51.462;6.692;2024-03-02T06:04:09;99850.06;;;9.47;58.19
9110;BME280;4590;51.462;6.692;2024-03-02T06:06:36;99850.03;;;9.30;59.33
9110;BME280;4590;51.462;6.692;2024-03-02T06:09:02;99851.38;;;9.41;58.73
9110;BME280;4590;51.462;6.692;2024-03-02T06:11:36;99848.63;;;9.41;58.33
9110;BME280;4590;51.462;6.692;2024-03-02T06:14:02;99855.88;;;9.45;58.14
9110;BME280;4590;51.462;6.692;2024-03-02T06:16:27;99855.38;;;9.35;59.05
9110;BME280;4590;51.462;6.692;2024-03-02T06:18:55;99861.19;;;9.33;58.72
9110;BME280;4590;51.462;6.692;2024-03-02T06:21:25;99862.63;;;9.31;58.97
9110;BME280;4590;51.462;6.692;2024-03-02T06:23:50;99861.13;;;9.16;59.57
9110;BME280;4590;51.462;6.692;2024-03-02T06:26:15;99859.84;;;9.13;59.67
9110;BME280;4590;51.462;6.692;2024-03-02T06:28:44;99863.25;;;9.10;59.82
9110;BME280;4590;51.462;6.692;2024-03-02T06:31:11;99848.22;;;9.08;60.06
9110;BME280;4590;51.462;6.692;2024-03-02T06:33:38;99870.50;;;9.15;59.46
9110;BME280;4590;51.462;6.692;2024-03-02T06:36:05;99863.66;;;8.95;60.58
9110;BME280;4590;51.462;6.692;2024-03-02T06:38:33;99866.25;;;9.00;60.08
9110;BME280;4590;51.462;6.692;2024-03-02T06:40:58;99872.75;;;9.13;59.65
9110;BME280;4590;51.462;6.692;2024-03-02T06:43:25;99891.66;;;9.14;59.70
9110;BME280;4590;51.462;6.692;2024-03-02T06:45:51;99894.25;;;9.20;59.41
9110;BME280;4590;51.462;6.692;2024-03-02T06:48:17;99894.69;;;9.13;59.96
9110;BME280;4590;51.462;6.692;2024-03-02T06:50:46;99898.31;;;9.22;59.35
9110;BME280;4590;51.462;6.692;2024-03-02T06:53:11;99897.50;;;9.22;59.37
9110;BME280;4590;51.462;6.692;2024-03-02T06:55:37;99905.38;;;9.14;59.79
9110;BME280;4590;51.462;6.692;2024-03-02T06:58:02;99903.44;;;9.15;59.67
9110;BME280;4590;51.462;6.692;2024-03-02T07:00:27;99903.94;;;9.17;59.85
9110;BME280;4590;51.462;6.692;2024-03-02T07:02:53;99908.72;;;9.03;60.34
9110;BME280;4590;51.462;6.692;2024-03-02T07:05:18;99910.69;;;9.11;60.29
9110;BME280;4590;51.462;6.692;2024-03-02T07:07:45;99920.28;;;9.31;59.38
9110;BME280;4590;51.462;6.692;2024-03-02T07:10:10;99911.59;;;9.37;59.31
9110;BME280;4590;51.462;6.692;2024-03-02T07:12:35;99910.34;;;9.43;59.38
9110;BME280;4590;51.462;6.692;2024-03-02T07:15:01;99916.09;;;9.33;59.78
9110;BME280;4590;51.462;6.692;2024-03-02T07:17:33;99910.47;;;9.38;59.62
9110;BME280;4590;51.462;6.692;2024-03-02T07:19:59;99921.16;;;9.48;59.30
9110;BME280;4590;51.462;6.692;2024-03-02T07:22:25;99928.13;;;9.55;59.28
9110;BME280;4590;51.462;6.692;2024-03-02T07:24:51;99925.25;;;9.60;59.10
9110;BME280;4590;51.462;6.692;2024-03-02T07:27:17;99927.53;;;9.75;59.09
9110;BME280;4590;51.462;6.692;2024-03-02T07:29:43;99932.53;;;9.81;58.52
9110;BME280;4590;51.462;6.692;2024-03-02T07:32:09;99927.69;;;9.87;58.79
9110;BME280;4590;51.462;6.692;2024-03-02T07:34:35;99927.69;;;9.87;58.61
9110;BME280;4590;51.462;6.692;2024-03-02T07:37:01;99921.72;;;9.85;58.44
9110;BME280;4590;51.462;6.692;2024-03-02T07:39:28;99925.78;;;10.05;58.15
9110;BME280;4590;51.462;6.692;2024-03-02T07:41:53;99929.97;;;10.02;57.72
9110;BME280;4590;51.462;6.692;2024-03-02T07:44:19;99925.78;;;10.13;57.60
9110;BME280;4590;51.462;6.692;2024-03-02T07:46:45;99919.03;;;10.19;57.50
9110;BME280;4590;51.462;6.692;2024-03-02T07:49:18;99932.59;;;10.25;57.26
9110;BME280;4590;51.462;6.692;2024-03-02T07:51:43;99941.50;;;10.22;57.34
9110;BME280;4590;51.462;6.692;2024-03-02T07:54:09;99933.56;;;10.29;57.25
9110;BME280;4590;51.462;6.692;2024-03-02T07:56:34;99942.31;;;10.31;57.08
9110;BME280;4590;51.462;6.692;2024-03-02T07:59:01;99942.28;;;10.39;56.70
9110;BME280;4590;51.462;6.692;2024-03-02T08:01:28;99950.06;;;10.46;56.87
9110;BME280;4590;51.462;6.692;2024-03-02T08:03:56;99945.69;;;10.53;56.94
9110;BME280;4590;51.462;6.692;2024-03-02T08:06:23;99966.06;;;10.61;57.02
9110;BME280;4590;51.462;6.692;2024-03-02T08:08:51;99955.38;;;10.60;57.04
9110;BME280;4590;51.462;6.692;2024-03-02T08:11:17;99962.16;;;10.71;56.85
9110;BME280;4590;51.462;6.692;2024-03-02T08:13:42;99970.56;;;10.83;57.13
9110;BME280;4590;51.462;6.692;2024-03-02T08:16:08;99966.81;;;10.96;56.51
9110;BME280;4590;51.462;6.692;2024-03-02T08:18:34;99972.59;;;11.12;56.27
9110;BME280;4590;51.462;6.692;2024-03-02T08:23:32;99962.34;;;11.21;55.57
9110;BME280;4590;51.462;6.692;2024-03-02T08:25:57;99972.06;;;11.27;55.34
9110;BME280;4590;51.462;6.692;2024-03-02T08:28:22;99961.88;;;11.28;54.97
9110;BME280;4590;51.462;6.692;2024-03-02T08:30:48;99962.69;;;11.28;55.32
9110;BME280;4590;51.462;6.692;2024-03-02T08:33:13;99968.84;;;11.25;54.89
9110;BME280;4590;51.462;6.692;2024-03-02T08:35:38;99961.91;;;11.10;55.46
9110;BME280;4590;51.462;6.692;2024-03-02T08:38:04;99961.38;;;11.25;55.17
9110;BME280;4590;51.462;6.692;2024-03-02T08:40:29;99959.91;;;11.28;55.42
9110;BME280;4590;51.462;6.692;2024-03-02T08:42:55;99944.81;;;11.34;55.16
9110;BME280;4590;51.462;6.692;2024-03-02T08:45:20;99947.50;;;11.51;55.41
9110;BME280;4590;51.462;6.692;2024-03-02T08:47:46;99956.31;;;11.66;55.20
9110;BME280;4590;51.462;6.692;2024-03-02T08:50:11;99952.69;;;11.82;55.28
9110;BME280;4590;51.462;6.692;2024-03-02T08:52:37;99957.91;;;12.05;55.23
9110;BME280;4590;51.462;6.692;2024-03-02T08:55:02;99959.53;;;12.26;55.05
9110;BME280;4590;51.462;6.692;2024-03-02T08:57:27;99967.94;;;12.51;54.72
9110;BME280;4590;51.462;6.692;2024-03-02T08:59:53;99960.72;;;12.58;53.64
9110;BME280;4590;51.462;6.692;2024-03-02T09:02:18;99961.44;;;12.68;53.08
9110;BME280;4590;51.462;6.692;2024-03-02T09:04:44;99966.97;;;13.00;52.90
9110;BME280;4590;51.462;6.692;2024-03-02T09:07:09;99965.53;;;13.15;52.38
9110;BME280;4590;51.462;6.692;2024-03-02T09:09:34;99961.91;;;13.36;52.44
9110;BME280;4590;51.462;6.692;2024-03-02T09:12:00;99961.44;;;13.58;52.06
9110;BME280;4590;51.462;6.692;2024-03-02T09:14:25;99963.16;;;13.75;51.64
9110;BME280;4590;51.462;6.692;2024-03-02T09:16:50;99959.03;;;13.81;50.75
9110;BME280;4590;51.462;6.692;2024-03-02T09:19:16;99962.22;;;13.95;50.48
9110;BME280;4590;51.462;6.692;2024-03-02T09:21:42;99959.09;;;14.09;50.36
9110;BME280;4590;51.462;6.692;2024-03-02T09:24:07;99963.44;;;14.22;50.23
9110;BME280;4590;51.462;6.692;2024-03-02T09:26:32;99962.84;;;14.28;49.76
9110;BME280;4590;51.462;6.692;2024-03-02T09:28:58;99958.56;;;14.43;49.94
9110;BME280;4590;51.462;6.692;2024-03-02T09:31:23;99964.66;;;14.36;49.46
9110;BME280;4590;51.462;6.692;2024-03-02T09:33:48;99968.91;;;14.58;49.06
9110;BME280;4590;51.462;6.692;2024-03-02T09:36:21;99959.34;;;14.56;46.84
9110;BME280;4590;51.462;6.692;2024-03-02T09:38:47;99963.97;;;14.39;48.08
9110;BME280;4590;51.462;6.692;2024-03-02T09:41:12;99962.16;;;14.71;47.80
9110;BME280;4590;51.462;6.692;2024-03-02T09:43:38;99952.81;;;14.64;47.85
9110;BME280;4590;51.462;6.692;2024-03-02T09:46:04;99950.63;;;14.69;45.92
9110;BME280;4590;51.462;6.692;2024-03-02T09:48:30;99943.34;;;14.77;46.61
9110;BME280;4590;51.462;6.692;2024-03-02T09:50:55;99953.56;;;15.04;46.62
9110;BME280;4590;51.462;6.692;2024-03-02T09:53:22;99948.28;;;15.15;45.76
9110;BME280;4590;51.462;6.692;2024-03-02T09:55:47;99950.38;;;15.34;45.82
9110;BME280;4590;51.462;6.692;2024-03-02T09:58:12;99942.66;;;15.43;45.51
9110;BME280;4590;51.462;6.692;2024-03-02T10:00:38;99946.66;;;15.58;45.40
9110;BME280;4590;51.462;6.692;2024-03-02T10:03:03;99938.41;;;15.61;44.90
9110;BME280;4590;51.462;6.692;2024-03-02T10:05:30;99948.97;;;15.71;44.61
9110;BME280;4590;51.462;6.692;2024-03-02T10:08:02;99947.50;;;15.77;43.67
9110;BME280;4590;51.462;6.692;2024-03-02T10:10:41;99947.19;;;15.98;43.85
9110;BME280;4590;51.462;6.692;2024-03-02T10:13:12;99945.84;;;15.92;43.70
9110;BME280;4590;51.462;6.692;2024-03-02T10:15:39;99949.66;;;16.19;43.57
9110;BME280;4590;51.462;6.692;2024-03-02T10:18:11;99958.19;;;16.30;42.19
9110;BME280;4590;51.462;6.692;2024-03-02T10:20:38;99959.00;;;16.30;42.58
9110;BME280;4590;51.462;6.692;2024-03-02T10:23:14;99953.78;;;16.09;41.00
9110;BME280;4590;51.462;6.692;2024-03-02T10:25:40;99959.66;;;16.24;41.29
9110;BME280;4590;51.462;6.692;2024-03-02T10:28:06;99960.44;;;16.24;39.46
9110;BME280;4590;51.462;6.692;2024-03-02T10:30:33;99947.09;;;16.30;41.43
9110;BME280;4590;51.462;6.692;2024-03-02T10:32:58;99948.28;;;16.48;41.35
9110;BME280;4590;51.462;6.692;2024-03-02T10:35:24;99950.03;;;16.56;41.60
9110;BME280;4590;51.462;6.692;2024-03-02T10:37:52;99946.25;;;16.64;41.63
9110;BME280;4590;51.462;6.692;2024-03-02T10:40:18;99956.81;;;16.59;41.29
9110;BME280;4590;51.462;6.692;2024-03-02T10:42:46;99947.41;;;16.44;41.10
9110;BME280;4590;51.462;6.692;2024-03-02T10:45:12;99945.72;;;16.39;39.54
9110;BME280;4590;51.462;6.692;2024-03-02T10:47:39;99939.44;;;16.42;41.17
9110;BME280;4590;51.462;6.692;2024-03-02T10:50:07;99940.53;;;16.19;41.06
9110;BME280;4590;51.462;6.692;2024-03-02T10:52:34;99932.06;;;16.31;41.20
9110;BME280;4590;51.462;6.692;2024-03-02T10:55:00;99936.53;;;16.35;41.26
9110;BME280;4590;51.462;6.692;2024-03-02T10:57:26;99929.19;;;16.27;41.17
9110;BME280;4590;51.462;6.692;2024-03-02T10:59:55;99920.97;;;15.96;40.29
9110;BME280;4590;51.462;6.692;2024-03-02T11:02:23;99918.06;;;16.08;41.07
9110;BME280;4590;51.462;6.692;2024-03-02T11:04:49;99932.19;;;15.84;41.35
9110;BME280;4590;51.462;6.692;2024-03-02T11:07:18;99928.94;;;15.97;40.90
9110;BME280;4590;51.462;6.692;2024-03-02T11:09:57;99912.97;;;16.10;40.80
9110;BME280;4590;51.462;6.692;2024-03-02T11:12:36;99920.56;;;16.13;40.75
9110;BME280;4590;51.462;6.692;2024-03-02T11:15:06;99914.72;;;15.99;41.07
9110;BME280;4590;51.462;6.692;2024-03-02T11:17:34;99914.13;;;15.90;41.14
9110;BME280;4590;51.462;6.692;2024-03-02T11:19:59;99914.78;;;15.67;41.59
9110;BME280;4590;51.462;6.692;2024-03-02T11:22:25;99909.22;;;15.67;40.94
9110;BME280;4590;51.462;6.692;2024-03-02T11:24:52;99903.03;;;15.90;41.17
9110;BME280;4590;51.462;6.692;2024-03-02T11:32:55;99904.31;;;15.96;40.05
9110;BME280;4590;51.462;6.692;2024-03-02T11:35:21;99906.59;;;15.74;40.36
9110;BME280;4590;51.462;6.692;2024-03-02T11:37:46;99903.38;;;15.88;40.60
9110;BME280;4590;51.462;6.692;2024-03-02T11:40:12;99900.56;;;15.69;41.03
9110;BME280;4590;51.462;6.692;2024-03-02T11:42:37;99898.06;;;15.99;41.04
9110;BME280;4590;51.462;6.692;2024-03-02T11:45:03;99900.31;;;15.93;41.13
9110;BME280;4590;51.462;6.692;2024-03-02T11:47:31;99908.56;;;15.90;40.92
9110;BME280;4590;51.462;6.692;2024-03-02T11:49:56;99905.34;;;15.88;41.08
9110;BME280;4590;51.462;6.692;2024-03-02T11:52:24;99891.63;;;15.95;41.37
9110;BME280;4590;51.462;6.692;2024-03-02T11:54:51;99913.63;;;15.68;41.16
9110;BME280;4590;51.462;6.692;2024-03-02T11:57:18;99891.78;;;15.67;41.41
9110;BME280;4590;51.462;6.692;2024-03-02T11:59:51;99897.34;;;15.67;41.67
9110;BME280;4590;51.462;6.692;2024-03-02T12:02:20;99889.75;;;15.17;41.87
9110;BME280;4590;51.462;6.692;2024-03-02T12:04:47;99886.81;;;15.25;41.90
9110;BME280;4590;51.462;6.692;2024-03-02T12:07:18;99882.13;;;15.29;41.86
9110;BME280;4590;51.462;6.692;2024-03-02T12:09:44;99877.94;;;15.20;42.11
9110;BME280;4590;51.462;6.692;2024-03-02T12:12:10;99879.00;;;14.99;42.65
9110;BME280;4590;51.462;6.692;2024-03-02T12:14:37;99873.47;;;14.99;42.45
9110;BME280;4590;51.462;6.692;2024-03-02T12:17:03;99875.09;;;15.00;42.27
9110;BME280;4590;51.462;6.692;2024-03-02T12:19:30;99871.72;;;14.48;42.81
9110;BME280;4590;51.462;6.692;2024-03-02T12:21:56;99867.03;;;14.80;42.62
9110;BME280;4590;51.462;6.692;2024-03-02T12:24:22;99864.03;;;14.29;43.47
9110;BME280;4590;51.462;6.692;2024-03-02T12:26:49;99872.88;;;14.47;43.12
9110;BME280;4590;51.462;6.692;2024-03-02T12:29:14;99873.31;;;14.49;43.06
9110;BME280;4590;51.462;6.692;2024-03-02T12:31:40;99865.09;;;14.52;43.18
9110;BME280;4590;51.462;6.692;2024-03-02T12:34:07;99859.03;;;14.47;42.87
9110;BME280;4590;51.462;6.692;2024-03-02T12:36:38;99857.81;;;14.60;42.79
9110;BME280;4590;51.462;6.692;2024-03-02T12:39:03;99854.34;;;14.63;43.38
9110;BME280;4590;51.462;6.692;2024-03-02T12:41:29;99852.63;;;14.58;43.43
9110;BME280;4590;51.462;6.692;2024-03-02T12:43:54;99845.06;;;14.71;43.04
9110;BME280;4590;51.462;6.692;2024-03-02T12:46:19;99841.19;;;14.60;43.18
9110;BME280;4590;51.462;6.692;2024-03-02T12:48:45;99833.41;;;14.50;43.29
9110;BME280;4590;51.462;6.692;2024-03-02T12:51:10;99826.28;;;14.80;42.96
9110;BME280;4590;51.462;6.692;2024-03-02T12:53:36;99821.56;;;14.81;43.19
9110;BME280;4590;51.462;6.692;2024-03-02T12:56:01;99813.63;;;14.79;43.13
9110;BME280;4590;51.462;6.692;2024-03-02T12:58:26;99824.06;;;14.70;43.46
9110;BME280;4590;51.462;6.692;2024-03-02T13:01:06;99824.16;;;14.73;43.03
9110;BME280;4590;51.462;6.692;2024-03-02T13:03:35;99826.72;;;14.82;42.98
9110;BME280;4590;51.462;6.692;2024-03-02T13:06:01;99818.59;;;14.58;43.60
9110;BME280;4590;51.462;6.692;2024-03-02T13:08:26;99826.06;;;14.42;43.64
9110;BME280;4590;51.462;6.692;2024-03-02T13:10:52;99827.78;;;14.46;43.60
9110;BME280;4590;51.462;6.692;2024-03-02T13:13:17;99827.59;;;14.55;43.62
9110;BME280;4590;51.462;6.692;2024-03-02T13:15:43;99813.44;;;14.72;43.27
9110;BME280;4590;51.462;6.692;2024-03-02T13:18:11;99813.88;;;14.58;43.09
9110;BME280;4590;51.462;6.692;2024-03-02T13:20:36;99811.91;;;14.74;43.63
9110;BME280;4590;51.462;6.692;2024-03-02T13:23:02;99812.16;;;14.69;43.46
9110;BME280;4590;51.462;6.692;2024-03-02T13:25:27;99800.75;;;14.71;43.90
9110;BME280;4590;51.462;6.692;2024-03-02T13:27:53;99805.47;;;14.55;44.11
9110;BME280;4590;51.462;6.692;2024-03-02T13:30:18;99806.91;;;14.80;43.63
9110;BME280;4590;51.462;6.692;2024-03-02T13:32:43;99813.78;;;14.70;44.00
9110;BME280;4590;51.462;6.692;2024-03-02T13:35:08;99804.78;;;14.89;43.73
9110;BME280;4590;51.462;6.692;2024-03-02T13:37:36;99814.94;;;14.85;43.58
9110;BME280;4590;51.462;6.692;2024-03-02T13:40:01;99806.63;;;14.69;43.88
9110;BME280;4590;51.462;6.692;2024-03-02T13:42:27;99810.56;;;14.68;43.75
9110;BME280;4590;51.462;6.692;2024-03-02T13:44:52;99808.78;;;14.92;43.48
9110;BME280;4590;51.462;6.692;2024-03-02T13:47:18;99802.91;;;14.62;43.73
9110;BME280;4590;51.462;6.692;2024-03-02T13:49:43;99805.56;;;14.74;43.91
9110;BME280;4590;51.462;6.692;2024-03-02T13:52:10;99802.69;;;14.55;43.52
9110;BME280;4590;51.462;6.692;2024-03-02T13:54:38;99802.91;;;14.62;43.73
9110;BME280;4590;51.462;6.692;2024-03-02T13:57:04;99815.22;;;14.36;44.75
9110;BME280;4590;51.462;6.692;2024-03-02T13:59:29;99799.66;;;14.44;43.98
9110;BME280;4590;51.462;6.692;2024-03-02T14:01:55;99793.16;;;14.68;44.17
9110;BME280;4590;51.462;6.692;2024-03-02T14:04:20;99791.19;;;14.84;43.85
9110;BME280;4590;51.462;6.692;2024-03-02T14:06:45;99793.34;;;14.59;44.25
9110;BME280;4590;51.462;6.692;2024-03-02T14:09:11;99780.00;;;14.65;43.58
9110;BME280;4590;51.462;6.692;2024-03-02T14:11:36;99788.16;;;14.89;43.17
9110;BME280;4590;51.462;6.692;2024-03-02T14:14:01;99783.78;;;14.88;43.28
9110;BME280;4590;51.462;6.692;2024-03-02T14:16:27;99792.88;;;14.57;43.54
9110;BME280;4590;51.462;6.692;2024-03-02T14:18:53;99780.75;;;14.62;43.07
9110;BME280;4590;51.462;6.692;2024-03-02T14:21:18;99786.09;;;14.55;43.24
9110;BME280;4590;51.462;6.692;2024-03-02T14:23:43;99773.59;;;14.61;43.42
9110;BME280;4590;51.462;6.692;2024-03-02T14:26:09;99775.72;;;14.52;43.64
9110;BME280;4590;51.462;6.692;2024-03-02T14:28:34;99777.53;;;14.60;43.72
9110;BME280;4590;51.462;6.692;2024-03-02T14:30:59;99767.78;;;14.82;43.47
9110;BME280;4590;51.462;6.692;2024-03-02T14:33:26;99760.38;;;14.70;43.68
9110;BME280;4590;51.462;6.692;2024-03-02T14:35:51;99765.09;;;15.01;43.44
9110;BME280;4590;51.462;6.692;2024-03-02T14:38:17;99758.66;;;14.81;43.91
9110;BME280;4590;51.462;6.692;2024-03-02T14:40:42;99775.22;;;14.62;44.10
9110;BME280;4590;51.462;6.692;2024-03-02T14:43:08;99771.63;;;14.93;43.56
9110;BME280;4590;51.462;6.692;2024-03-02T14:45:33;99768.50;;;14.79;43.71
9110;BME280;4590;51.462;6.692;2024-03-02T14:47:58;99768.50;;;14.94;43.57
9110;BME280;4590;51.462;6.692;2024-03-02T14:50:25;99761.88;;;14.99;42.90
9110;BME280;4590;51.462;6.692;2024-03-02T14:52:51;99753.06;;;15.13;43.08
9110;BME280;4590;51.462;6.692;2024-03-02T14:55:16;99766.09;;;14.93;43.15
9110;BME280;4590;51.462;6.692;2024-03-02T14:57:42;99756.59;;;15.09;43.25
9110;BME280;4590;51.462;6.692;2024-03-02T15:00:08;99745.66;;;15.17;43.43
9110;BME280;4590;51.462;6.692;2024-03-02T15:02:36;99757.91;;;15.16;43.23
9110;BME280;4590;51.462;6.692;2024-03-02T15:05:01;99757.63;;;15.21;43.19
9110;BME280;4590;51.462;6.692;2024-03-02T15:07:28;99749.13;;;14.94;43.31
9110;BME280;4590;51.462;6.692;2024-03-02T15:09:53;99760.91;;;14.91;43.36
9110;BME280;4590;51.462;6.692;2024-03-02T15:12:19;99756.19;;;14.76;43.50
9110;BME280;4590;51.462;6.692;2024-03-02T15:14:44;99751.78;;;15.06;43.17
9110;BME280;4590;51.462;6.692;2024-03-02T15:17:13;99746.91;;;15.19;43.02
9110;BME280;4590;51.462;6.692;2024-03-02T15:19:44;99749.06;;;15.26;43.07
9110;BME280;4590;51.462;6.692;2024-03-02T15:22:09;99739.19;;;15.28;42.84
9110;BME280;4590;51.462;6.692;2024-03-02T15:24:35;99741.91;;;15.25;42.89
9110;BME280;4590;51.462;6.692;2024-03-02T15:27:00;99737.44;;;15.20;42.72
9110;BME280;4590;51.462;6.692;2024-03-02T15:29:29;99731.41;;;15.34;42.69
9110;BME280;4590;51.462;6.692;2024-03-02T15:31:56;99738.19;;;15.01;43.01
9110;BME280;4590;51.462;6.692;2024-03-02T15:34:21;99735.16;;;15.06;43.26
9110;BME280;4590;51.462;6.692;2024-03-02T15:36:48;99726.84;;;15.06;42.86
9110;BME280;4590;51.462;6.692;2024-03-02T15:39:13;99725.69;;;15.27;42.83
9110;BME280;4590;51.462;6.692;2024-03-02T15:41:38;99731.66;;;15.09;43.20
9110;BME280;4590;51.462;6.692;2024-03-02T15:44:05;99730.50;;;15.11;43.37
9110;BME280;4590;51.462;6.692;2024-03-02T15:46:32;99717.41;;;14.92;42.94
9110;BME280;4590;51.462;6.692;2024-03-02T15:48:58;99731.16;;;14.88;43.16
9110;BME280;4590;51.462;6.692;2024-03-02T15:51:25;99727.06;;;15.17;43.05
9110;BME280;4590;51.462;6.692;2024-03-02T15:53:50;99740.13;;;15.17;42.81
9110;BME280;4590;51.462;6.692;2024-03-02T15:56:16;99734.03;;;15.11;42.89
9110;BME280;4590;51.462;6.692;2024-03-02T15:58:41;99744.41;;;15.14;43.20
9110;BME280;4590;51.462;6.692;2024-03-02T16:01:06;99738.38;;;15.08;42.99
9110;BME280;4590;51.462;6.692;2024-03-02T16:03:32;99739.44;;;15.04;42.86
9110;BME280;4590;51.462;6.692;2024-03-02T16:05:57;99738.88;;;15.14;42.74
9110;BME280;4590;51.462;6.692;2024-03-02T16:08:23;99734.03;;;14.76;43.27
9110;BME280;4590;51.462;6.692;2024-03-02T16:10:48;99736.63;;;15.20;42.58
9110;BME280;4590;51.462;6.692;2024-03-02T16:13:13;99721.78;;;15.12;42.82
9110;BME280;4590;51.462;6.692;2024-03-02T16:15:38;99734.72;;;14.89;43.23
9110;BME280;4590;51.462;6.692;2024-03-02T16:18:04;99727.78;;;15.14;42.65
9110;BME280;4590;51.462;6.692;2024-03-02T16:20:29;99729.75;;;15.14;42.65
9110;BME280;4590;51.462;6.692;2024-03-02T16:22:55;99739.63;;;15.30;42.86
9110;BME280;4590;51.462;6.692;2024-03-02T16:25:20;99725.75;;;14.95;42.64
9110;BME280;4590;51.462;6.692;2024-03-02T16:27:45;99725.28;;;15.25;42.60
9110;BME280;4590;51.462;6.692;2024-03-02T16:30:11;99726.63;;;15.15;42.46
9110;BME280;4590;51.462;6.692;2024-03-02T16:32:37;99720.09;;;15.23;42.49
9110;BME280;4590;51.462;6.692;2024-03-02T16:35:03;99721.69;;;14.89;43.16
9110;BME280;4590;51.462;6.692;2024-03-02T16:37:28;99717.81;;;15.09;42.85
9110;BME280;4590;51.462;6.692;2024-03-02T16:39:53;99725.94;;;15.02;42.87
9110;BME280;4590;51.462;6.692;2024-03-02T16:42:20;99717.34;;;15.07;42.75
9110;BME280;4590;51.462;6.692;2024-03-02T16:44:46;99731.09;;;15.20;42.69
9110;BME280;4590;51.462;6.692;2024-03-02T16:47:14;99731.09;;;15.20;42.53
9110;BME280;4590;51.462;6.692;2024-03-02T16:49:44;99724.69;;;15.00;42.61
9110;BME280;4590;51.462;6.692;2024-03-02T16:52:09;99726.38;;;15.04;42.45
9110;BME280;4590;51.462;6.692;2024-03-02T16:54:35;99733.34;;;14.98;42.35
9110;BME280;4590;51.462;6.692;2024-03-02T16:57:00;99744.44;;;14.98;42.48
9110;BME280;4590;51.462;6.692;2024-03-02T16:59:25;99740.72;;;14.91;42.59
9110;BME280;4590;51.462;6.692;2024-03-02T17:01:50;99740.03;;;15.13;42.24
9110;BME280;4590;51.462;6.692;2024-03-02T17:04:16;99731.56;;;15.06;42.43
9110;BME280;4590;51.462;6.692;2024-03-02T17:06:41;99735.75;;;15.16;42.30
9110;BME280;4590;51.462;6.692;2024-03-02T17:09:06;99742.56;;;15.02;42.49
9110;BME280;4590;51.462;6.692;2024-03-02T17:11:32;99743.09;;;15.08;42.48
9110;BME280;4590;51.462;6.692;2024-03-02T17:13:57;99745.06;;;15.07;42.04
9110;BME280;4590;51.462;6.692;2024-03-02T17:16:25;99744.25;;;15.07;42.59
9110;BME280;4590;51.462;6.692;2024-03-02T17:18:52;99752.31;;;14.96;42.65
9110;BME280;4590;51.462;6.692;2024-03-02T17:21:18;99748.66;;;14.92;42.64
9110;BME280;4590;51.462;6.692;2024-03-02T17:23:43;99740.50;;;14.99;42.94
9110;BME280;4590;51.462;6.692;2024-03-02T17:26:08;99750.34;;;14.97;42.90
9110;BME280;4590;51.462;6.692;2024-03-02T17:28:34;99754.53;;;15.06;42.72
9110;BME280;4590;51.462;6.692;2024-03-02T17:30:59;99750.50;;;15.04;43.14
9110;BME280;4590;51.462;6.692;2024-03-02T17:33:25;99760.72;;;14.84;43.45
9110;BME280;4590;51.462;6.692;2024-03-02T17:35:50;99758.72;;;15.00;43.13
9110;BME280;4590;51.462;6.692;2024-03-02T17:38:17;99759.53;;;15.01;43.26
9110;BME280;4590;51.462;6.692;2024-03-02T17:40:42;99761.53;;;14.85;43.63
9110;BME280;4590;51.462;6.692;2024-03-02T17:43:08;99785.47;;;14.93;43.63
9110;BME280;4590;51.462;6.692;2024-03-02T17:45:33;99774.91;;;14.98;43.54
9110;BME280;4590;51.462;6.692;2024-03-02T17:47:59;99772.69;;;14.88;43.61
9110;BME280;4590;51.462;6.692;2024-03-02T17:50:24;99773.50;;;14.89;43.69
9110;BME280;4590;51.462;6.692;2024-03-02T17:52:49;99778.03;;;14.81;44.05
9110;BME280;4590;51.462;6.692;2024-03-02T17:55:15;99781.53;;;14.94;43.69
9110;BME280;4590;51.462;6.692;2024-03-02T17:57:40;99789.41;;;14.92;43.89
9110;BME280;4590;51.462;6.692;2024-03-02T18:00:06;99783.06;;;14.91;43.84
9110;BME280;4590;51.462;6.692;2024-03-02T18:02:31;99788.31;;;14.96;43.64
9110;BME280;4590;51.462;6.692;2024-03-02T18:04:59;99793.44;;;14.79;43.89
9110;BME280;4590;51.462;6.692;2024-03-02T18:07:25;99795.66;;;14.89;43.79
9110;BME280;4590;51.462;6.692;2024-03-02T18:09:50;99791.47;;;14.79;43.91
9110;BME280;4590;51.462;6.692;2024-03-02T18:12:15;99793.69;;;14.89;43.75
9110;BME280;4590;51.462;6.692;2024-03-02T18:14:40;99793.94;;;14.84;43.79
9110;BME280;4590;51.462;6.692;2024-03-02T18:17:06;99791.09;;;14.65;44.28
9110;BME280;4590;51.462;6.692;2024-03-02T18:19:31;99791.53;;;14.83;43.97
9110;BME280;4590;51.462;6.692;2024-03-02T18:21:57;99791.53;;;14.67;44.11
9110;BME280;4590;51.462;6.692;2024-03-02T18:24:22;99790.72;;;14.82;43.71
9110;BME280;4590;51.462;6.692;2024-03-02T18:26:50;99790.03;;;14.85;43.74
9110;BME280;4590;51.462;6.692;2024-03-02T18:29:15;99792.09;;;14.72;43.91
9110;BME280;4590;51.462;6.692;2024-03-02T18:31:42;99781.25;;;14.67;43.87
9110;BME280;4590;51.462;6.692;2024-03-02T18:34:07;99803.06;;;14.69;43.68
9110;BME280;4590;51.462;6.692;2024-03-02T18:36:32;99789.41;;;14.60;44.16
9110;BME280;4590;51.462;6.692;2024-03-02T18:38:58;99799.22;;;14.73;43.62
9110;BME280;4590;51.462;6.692;2024-03-02T18:41:23;99786.53;;;14.72;43.60
9110;BME280;4590;51.462;6.692;2024-03-02T18:43:49;99788.16;;;14.58;43.71
9110;BME280;4590;51.462;6.692;2024-03-02T18:46:15;99789.06;;;14.62;43.92
9110;BME280;4590;51.462;6.692;2024-03-02T18:48:40;99791.63;;;14.55;44.05
9110;BME280;4590;51.462;6.692;2024-03-02T18:51:09;99790.19;;;14.45;43.82
9110;BME280;4590;51.462;6.692;2024-03-02T18:53:35;99779.94;;;14.61;43.59
9110;BME280;4590;51.462;6.692;2024-03-02T18:56:01;99777.53;;;14.60;43.34
9110;BME280;4590;51.462;6.692;2024-03-02T18:58:29;99784.94;;;14.56;43.65